sensor_id;sensor_type;location;lat;lon;timestamp;P1;P2;P0
72854;PMS7003;60991;51.278;22.550;2023-05-16T00:00:59;14.00;14.00;10.50
72854;PMS7003;60991;51.278;22.550;2023-05-16T00:02:29;18.00;14.50;10.75
72854;PMS7003;60991;51.278;22.550;2023-05-16T00:03:59;13.25;13.25;9.25
72854;PMS7003;60991;51.278;22.550;2023-05-16T00:05:29;15.75;13.75;11.00
72854;PMS7003;60991;51.278;22.550;2023-05-16T00:07:00;12.25;12.25;8.25
72854;PMS7003;60991;51.278;22.550;2023-05-16T00:08:30;15.50;13.50;10.50
72854;PMS7003;60991;51.278;22.550;2023-05-16T00:10:00;14.50;14.50;10.50
72854;PMS7003;60991;51.278;22.550;2023-05-16T00:11:31;17.75;15.00;12.00
72854;PMS7003;60991;51.278;22.550;2023-05-16T00:13:01;14.00;12.50;8.50
72854;PMS7003;60991;51.278;22.550;2023-05-16T00:14:32;8.00;6.75;5.50
72854;PMS7003;60991;51.278;22.550;2023-05-16T00:16:02;16.75;14.25;10.75
72854;PMS7003;60991;51.278;22.550;2023-05-16T00:17:33;13.75;12.25;10.50
72854;PMS7003;60991;51.278;22.550;2023-05-16T00:19:03;15.00;15.00;11.25
72854;PMS7003;60991;51.278;22.550;2023-05-16T00:20:33;20.75;15.25;12.00
72854;PMS7003;60991;51.278;22.550;2023-05-16T00:22:04;14.50;14.25;10.75
72854;PMS7003;60991;51.278;22.550;2023-05-16T00:23:34;16.00;15.00;11.00
72854;PMS7003;60991;51.278;22.550;2023-05-16T00:25:05;19.75;16.75;11.25
72854;PMS7003;60991;51.278;22.550;2023-05-16T00:26:36;17.50;17.50;12.00
72854;PMS7003;60991;51.278;22.550;2023-05-16T00:28:06;18.25;14.00;9.25
72854;PMS7003;60991;51.278;22.550;2023-05-16T00:29:36;15.50;13.75;11.00
72854;PMS7003;60991;51.278;22.550;2023-05-16T00:31:07;21.50;14.00;8.75
72854;PMS7003;60991;51.278;22.550;2023-05-16T00:32:37;16.25;14.25;10.50
72854;PMS7003;60991;51.278;22.550;2023-05-16T00:34:07;16.00;14.00;11.00
72854;PMS7003;60991;51.278;22.550;2023-05-16T00:35:37;14.00;12.75;10.25
72854;PMS7003;60991;51.278;22.550;2023-05-16T00:37:07;14.75;14.75;10.00
72854;PMS7003;60991;51.278;22.550;2023-05-16T00:38:38;17.75;16.00;10.50
72854;PMS7003;60991;51.278;22.550;2023-05-16T00:40:08;21.33;16.33;12.00
72854;PMS7003;60991;51.278;22.550;2023-05-16T00:41:39;15.50;13.75;10.00
72854;PMS7003;60991;51.278;22.550;2023-05-16T00:43:09;19.25;16.00;11.00
72854;PMS7003;60991;51.278;22.550;2023-05-16T00:44:39;22.50;15.50;8.50
72854;PMS7003;60991;51.278;22.550;2023-05-16T00:46:09;15.75;14.00;10.00
72854;PMS7003;60991;51.278;22.550;2023-05-16T00:47:40;21.33;18.00;12.00
72854;PMS7003;60991;51.278;22.550;2023-05-16T00:49:10;19.25;17.75;11.75
72854;PMS7003;60991;51.278;22.550;2023-05-16T00:50:40;15.50;15.50;10.75
72854;PMS7003;60991;51.278;22.550;2023-05-16T00:52:11;15.50;14.50;13.00
72854;PMS7003;60991;51.278;22.550;2023-05-16T00:53:41;15.00;14.00;12.00
72854;PMS7003;60991;51.278;22.550;2023-05-16T00:55:11;19.75;14.50;10.00
72854;PMS7003;60991;51.278;22.550;2023-05-16T00:56:42;14.50;14.50;11.75
72854;PMS7003;60991;51.278;22.550;2023-05-16T00:58:12;16.50;16.00;12.00
72854;PMS7003;60991;51.278;22.550;2023-05-16T00:59:45;15.00;14.25;11.00
72854;PMS7003;60991;51.278;22.550;2023-05-16T01:01:15;17.00;15.75;12.00
72854;PMS7003;60991;51.278;22.550;2023-05-16T01:02:46;21.00;15.25;11.25
72854;PMS7003;60991;51.278;22.550;2023-05-16T01:04:16;17.00;16.00;12.00
72854;PMS7003;60991;51.278;22.550;2023-05-16T01:05:47;19.00;16.75;12.25
72854;PMS7003;60991;51.278;22.550;2023-05-16T01:07:18;15.75;15.75;12.00
72854;PMS7003;60991;51.278;22.550;2023-05-16T01:08:48;15.00;13.25;11.00
72854;PMS7003;60991;51.278;22.550;2023-05-16T01:10:18;16.00;14.75;11.25
72854;PMS7003;60991;51.278;22.550;2023-05-16T01:11:55;17.50;14.50;11.00
72854;PMS7003;60991;51.278;22.550;2023-05-16T01:13:32;13.50;12.75;9.00
72854;PMS7003;60991;51.278;22.550;2023-05-16T01:17:11;18.50;17.00;11.00
72854;PMS7003;60991;51.278;22.550;2023-05-16T01:20:52;19.00;15.50;11.00
72854;PMS7003;60991;51.278;22.550;2023-05-16T01:22:28;14.50;14.00;11.50
72854;PMS7003;60991;51.278;22.550;2023-05-16T01:24:13;14.25;14.00;11.00
72854;PMS7003;60991;51.278;22.550;2023-05-16T01:25:56;21.25;19.25;11.75
72854;PMS7003;60991;51.278;22.550;2023-05-16T01:27:35;15.00;14.25;12.00
72854;PMS7003;60991;51.278;22.550;2023-05-16T01:29:07;14.75;14.50;10.75
72854;PMS7003;60991;51.278;22.550;2023-05-16T01:30:38;14.00;12.00;9.25
72854;PMS7003;60991;51.278;22.550;2023-05-16T01:32:09;15.00;14.75;11.75
72854;PMS7003;60991;51.278;22.550;2023-05-16T01:33:39;16.75;14.25;11.00
72854;PMS7003;60991;51.278;22.550;2023-05-16T01:35:10;18.50;15.50;11.00
72854;PMS7003;60991;51.278;22.550;2023-05-16T01:36:44;13.25;13.25;11.25
72854;PMS7003;60991;51.278;22.550;2023-05-16T01:38:24;19.75;18.00;14.00
72854;PMS7003;60991;51.278;22.550;2023-05-16T01:39:56;14.50;14.50;11.50
72854;PMS7003;60991;51.278;22.550;2023-05-16T01:43:07;17.50;15.75;12.00
72854;PMS7003;60991;51.278;22.550;2023-05-16T01:46:29;20.00;15.25;11.75
72854;PMS7003;60991;51.278;22.550;2023-05-16T01:51:35;19.75;16.00;12.50
72854;PMS7003;60991;51.278;22.550;2023-05-16T01:53:18;19.75;16.00;13.00
72854;PMS7003;60991;51.278;22.550;2023-05-16T01:54:54;18.25;13.75;11.00
72854;PMS7003;60991;51.278;22.550;2023-05-16T01:56:27;16.00;14.50;12.00
72854;PMS7003;60991;51.278;22.550;2023-05-16T01:58:00;21.25;15.75;12.00
72854;PMS7003;60991;51.278;22.550;2023-05-16T01:59:33;18.00;12.25;9.50
72854;PMS7003;60991;51.278;22.550;2023-05-16T02:01:04;17.50;15.50;11.00
72854;PMS7003;60991;51.278;22.550;2023-05-16T02:02:35;18.75;18.75;12.25
72854;PMS7003;60991;51.278;22.550;2023-05-16T02:04:05;18.25;15.00;10.00
72854;PMS7003;60991;51.278;22.550;2023-05-16T02:05:35;14.75;14.75;11.25
72854;PMS7003;60991;51.278;22.550;2023-05-16T02:07:05;17.50;13.50;10.75
72854;PMS7003;60991;51.278;22.550;2023-05-16T02:08:36;16.75;15.75;11.50
72854;PMS7003;60991;51.278;22.550;2023-05-16T02:10:06;14.50;14.25;10.25
72854;PMS7003;60991;51.278;22.550;2023-05-16T02:11:37;16.25;13.00;11.00
72854;PMS7003;60991;51.278;22.550;2023-05-16T02:13:07;17.00;14.75;11.00
72854;PMS7003;60991;51.278;22.550;2023-05-16T02:14:37;16.00;15.00;11.00
72854;PMS7003;60991;51.278;22.550;2023-05-16T02:16:09;15.75;15.75;11.75
72854;PMS7003;60991;51.278;22.550;2023-05-16T02:17:40;14.50;14.25;10.75
72854;PMS7003;60991;51.278;22.550;2023-05-16T02:19:10;19.00;15.25;10.75
72854;PMS7003;60991;51.278;22.550;2023-05-16T02:20:40;17.00;15.00;11.00
72854;PMS7003;60991;51.278;22.550;2023-05-16T02:22:10;15.75;14.00;10.00
72854;PMS7003;60991;51.278;22.550;2023-05-16T02:23:41;18.25;18.00;12.00
72854;PMS7003;60991;51.278;22.550;2023-05-16T02:25:11;12.00;12.00;9.75
72854;PMS7003;60991;51.278;22.550;2023-05-16T02:26:41;12.00;12.00;10.00
72854;PMS7003;60991;51.278;22.550;2023-05-16T02:28:11;16.00;12.00;11.00
72854;PMS7003;60991;51.278;22.550;2023-05-16T02:29:42;14.00;12.00;10.00
72854;PMS7003;60991;51.278;22.550;2023-05-16T02:31:12;12.50;12.25;9.25
72854;PMS7003;60991;51.278;22.550;2023-05-16T02:32:42;12.00;12.00;9.75
72854;PMS7003;60991;51.278;22.550;2023-05-16T02:34:12;12.25;11.75;9.25
72854;PMS7003;60991;51.278;22.550;2023-05-16T02:35:42;12.00;12.00;10.25
72854;PMS7003;60991;51.278;22.550;2023-05-16T02:37:13;14.67;14.00;10.00
72854;PMS7003;60991;51.278;22.550;2023-05-16T02:38:43;13.50;13.50;11.00
72854;PMS7003;60991;51.278;22.550;2023-05-16T02:40:14;13.25;13.00;10.00
72854;PMS7003;60991;51.278;22.550;2023-05-16T02:41:44;14.75;13.75;9.25
72854;PMS7003;60991;51.278;22.550;2023-05-16T02:43:15;20.00;14.00;11.00
72854;PMS7003;60991;51.278;22.550;2023-05-16T02:44:45;11.25;11.25;9.25
72854;PMS7003;60991;51.278;22.550;2023-05-16T02:46:25;12.25;10.25;7.50
72854;PMS7003;60991;51.278;22.550;2023-05-16T02:47:57;18.50;13.50;10.00
72854;PMS7003;60991;51.278;22.550;2023-05-16T02:49:27;16.75;12.75;8.75
72854;PMS7003;60991;51.278;22.550;2023-05-16T02:50:57;16.75;12.50;9.00
72854;PMS7003;60991;51.278;22.550;2023-05-16T02:52:28;13.33;12.33;10.00
72854;PMS7003;60991;51.278;22.550;2023-05-16T02:53:58;14.50;14.25;11.00
72854;PMS7003;60991;51.278;22.550;2023-05-16T02:55:28;14.00;10.50;7.25
72854;PMS7003;60991;51.278;22.550;2023-05-16T02:56:58;16.00;13.75;9.00
72854;PMS7003;60991;51.278;22.550;2023-05-16T02:58:28;13.50;11.50;9.00
72854;PMS7003;60991;51.278;22.550;2023-05-16T02:59:59;14.00;10.00;8.50
72854;PMS7003;60991;51.278;22.550;2023-05-16T03:01:29;11.25;10.50;6.75
72854;PMS7003;60991;51.278;22.550;2023-05-16T03:02:59;10.00;9.50;6.00
72854;PMS7003;60991;51.278;22.550;2023-05-16T03:04:30;12.25;10.75;9.00
72854;PMS7003;60991;51.278;22.550;2023-05-16T03:06:00;11.75;11.25;9.25
72854;PMS7003;60991;51.278;22.550;2023-05-16T03:07:30;14.50;12.00;10.00
72854;PMS7003;60991;51.278;22.550;2023-05-16T03:09:01;13.25;11.75;9.00
72854;PMS7003;60991;51.278;22.550;2023-05-16T03:10:31;19.25;13.00;7.50
72854;PMS7003;60991;51.278;22.550;2023-05-16T03:12:01;13.50;12.75;10.00
72854;PMS7003;60991;51.278;22.550;2023-05-16T03:13:31;11.25;10.50;9.25
72854;PMS7003;60991;51.278;22.550;2023-05-16T03:15:02;13.25;13.00;10.00
72854;PMS7003;60991;51.278;22.550;2023-05-16T03:16:32;18.00;13.00;9.00
72854;PMS7003;60991;51.278;22.550;2023-05-16T03:18:02;10.75;9.25;7.25
72854;PMS7003;60991;51.278;22.550;2023-05-16T03:19:32;11.50;11.50;7.50
72854;PMS7003;60991;51.278;22.550;2023-05-16T03:21:03;13.00;11.25;9.75
72854;PMS7003;60991;51.278;22.550;2023-05-16T03:22:33;10.00;10.00;8.00
72854;PMS7003;60991;51.278;22.550;2023-05-16T03:24:04;12.75;11.00;9.00
72854;PMS7003;60991;51.278;22.550;2023-05-16T03:25:34;11.25;11.25;8.75
72854;PMS7003;60991;51.278;22.550;2023-05-16T03:27:04;12.50;11.50;9.75
72854;PMS7003;60991;51.278;22.550;2023-05-16T03:28:35;10.25;10.00;7.50
72854;PMS7003;60991;51.278;22.550;2023-05-16T03:30:06;16.00;12.75;9.75
72854;PMS7003;60991;51.278;22.550;2023-05-16T03:31:37;13.75;13.75;11.00
72854;PMS7003;60991;51.278;22.550;2023-05-16T03:33:07;11.75;11.00;9.25
72854;PMS7003;60991;51.278;22.550;2023-05-16T03:34:37;17.50;13.25;9.00
72854;PMS7003;60991;51.278;22.550;2023-05-16T03:36:08;12.75;12.75;10.00
72854;PMS7003;60991;51.278;22.550;2023-05-16T03:37:39;12.00;12.00;9.75
72854;PMS7003;60991;51.278;22.550;2023-05-16T03:39:09;12.50;10.75;9.00
72854;PMS7003;60991;51.278;22.550;2023-05-16T03:40:39;17.25;10.00;8.25
72854;PMS7003;60991;51.278;22.550;2023-05-16T03:42:10;12.50;9.50;7.50
72854;PMS7003;60991;51.278;22.550;2023-05-16T03:43:40;18.75;13.25;9.00
72854;PMS7003;60991;51.278;22.550;2023-05-16T03:45:10;11.00;11.00;9.00
72854;PMS7003;60991;51.278;22.550;2023-05-16T03:46:41;11.75;11.75;9.00
72854;PMS7003;60991;51.278;22.550;2023-05-16T03:48:11;13.25;11.50;9.25
72854;PMS7003;60991;51.278;22.550;2023-05-16T03:49:41;13.00;10.75;8.25
72854;PMS7003;60991;51.278;22.550;2023-05-16T03:51:11;17.75;15.75;11.25
72854;PMS7003;60991;51.278;22.550;2023-05-16T03:52:42;10.50;9.50;8.00
72854;PMS7003;60991;51.278;22.550;2023-05-16T03:54:12;15.75;13.75;10.00
72854;PMS7003;60991;51.278;22.550;2023-05-16T03:55:42;15.50;13.50;10.00
72854;PMS7003;60991;51.278;22.550;2023-05-16T03:57:12;14.00;12.25;9.00
72854;PMS7003;60991;51.278;22.550;2023-05-16T03:58:43;16.25;12.75;9.25
72854;PMS7003;60991;51.278;22.550;2023-05-16T04:00:13;10.75;9.75;8.75
72854;PMS7003;60991;51.278;22.550;2023-05-16T04:01:43;14.25;11.50;7.50
72854;PMS7003;60991;51.278;22.550;2023-05-16T04:03:13;10.50;10.50;8.00
72854;PMS7003;60991;51.278;22.550;2023-05-16T04:04:44;12.75;12.00;10.00
72854;PMS7003;60991;51.278;22.550;2023-05-16T04:06:14;12.25;11.50;10.25
72854;PMS7003;60991;51.278;22.550;2023-05-16T04:07:44;13.75;11.50;9.25
72854;PMS7003;60991;51.278;22.550;2023-05-16T04:09:14;14.00;12.75;9.75
72854;PMS7003;60991;51.278;22.550;2023-05-16T04:10:44;13.00;13.00;9.75
72854;PMS7003;60991;51.278;22.550;2023-05-16T04:12:15;12.67;10.67;9.67
72854;PMS7003;60991;51.278;22.550;2023-05-16T04:13:45;11.75;10.00;8.00
72854;PMS7003;60991;51.278;22.550;2023-05-16T04:15:15;15.25;15.25;9.25
72854;PMS7003;60991;51.278;22.550;2023-05-16T04:16:45;13.50;13.50;9.75
72854;PMS7003;60991;51.278;22.550;2023-05-16T04:18:16;13.67;13.00;9.33
72854;PMS7003;60991;51.278;22.550;2023-05-16T04:19:46;15.00;15.00;10.25
72854;PMS7003;60991;51.278;22.550;2023-05-16T04:21:16;13.50;12.50;10.25
72854;PMS7003;60991;51.278;22.550;2023-05-16T04:22:46;12.50;11.25;9.25
72854;PMS7003;60991;51.278;22.550;2023-05-16T04:24:17;12.25;12.00;9.50
72854;PMS7003;60991;51.278;22.550;2023-05-16T04:25:47;11.50;11.00;9.00
72854;PMS7003;60991;51.278;22.550;2023-05-16T04:27:17;12.50;10.00;7.25
72854;PMS7003;60991;51.278;22.550;2023-05-16T04:28:47;11.75;11.00;9.00
72854;PMS7003;60991;51.278;22.550;2023-05-16T04:30:18;12.25;11.75;6.50
72854;PMS7003;60991;51.278;22.550;2023-05-16T04:31:48;12.00;10.00;9.00
72854;PMS7003;60991;51.278;22.550;2023-05-16T04:33:18;17.25;12.25;9.75
72854;PMS7003;60991;51.278;22.550;2023-05-16T04:34:48;15.25;13.50;9.75
72854;PMS7003;60991;51.278;22.550;2023-05-16T04:36:19;12.50;12.00;8.25
72854;PMS7003;60991;51.278;22.550;2023-05-16T04:37:49;12.75;9.00;6.75
72854;PMS7003;60991;51.278;22.550;2023-05-16T04:39:19;15.00;13.50;10.00
72854;PMS7003;60991;51.278;22.550;2023-05-16T04:40:49;11.00;11.00;9.00
72854;PMS7003;60991;51.278;22.550;2023-05-16T04:42:20;17.25;11.75;8.25
72854;PMS7003;60991;51.278;22.550;2023-05-16T04:43:50;10.25;9.25;7.25
72854;PMS7003;60991;51.278;22.550;2023-05-16T04:45:20;16.25;14.00;11.50
72854;PMS7003;60991;51.278;22.550;2023-05-16T04:46:51;15.00;13.75;9.25
72854;PMS7003;60991;51.278;22.550;2023-05-16T04:48:21;16.00;14.00;10.00
72854;PMS7003;60991;51.278;22.550;2023-05-16T04:49:51;12.00;11.50;7.50
72854;PMS7003;60991;51.278;22.550;2023-05-16T04:51:21;14.00;13.00;10.00
72854;PMS7003;60991;51.278;22.550;2023-05-16T04:52:52;11.50;11.00;6.25
72854;PMS7003;60991;51.278;22.550;2023-05-16T04:54:22;12.67;12.00;10.00
72854;PMS7003;60991;51.278;22.550;2023-05-16T04:55:52;12.25;11.25;9.00
72854;PMS7003;60991;51.278;22.550;2023-05-16T04:57:23;11.50;11.50;9.00
72854;PMS7003;60991;51.278;22.550;2023-05-16T04:58:53;12.75;12.75;9.25
72854;PMS7003;60991;51.278;22.550;2023-05-16T05:00:23;14.00;12.00;9.00
72854;PMS7003;60991;51.278;22.550;2023-05-16T05:01:53;13.00;12.00;9.25
72854;PMS7003;60991;51.278;22.550;2023-05-16T05:03:24;14.25;11.00;9.00
72854;PMS7003;60991;51.278;22.550;2023-05-16T05:04:54;12.25;11.75;10.00
72854;PMS7003;60991;51.278;22.550;2023-05-16T05:06:24;13.00;11.67;8.00
72854;PMS7003;60991;51.278;22.550;2023-05-16T05:07:54;14.50;12.75;8.25
72854;PMS7003;60991;51.278;22.550;2023-05-16T05:09:26;12.00;11.00;7.00
72854;PMS7003;60991;51.278;22.550;2023-05-16T05:10:57;12.75;11.75;8.75
72854;PMS7003;60991;51.278;22.550;2023-05-16T05:12:27;13.00;11.00;7.25
72854;PMS7003;60991;51.278;22.550;2023-05-16T05:13:57;11.00;11.00;7.25
72854;PMS7003;60991;51.278;22.550;2023-05-16T05:15:27;17.25;13.75;9.25
72854;PMS7003;60991;51.278;22.550;2023-05-16T05:16:57;14.25;13.25;9.50
72854;PMS7003;60991;51.278;22.550;2023-05-16T05:18:28;14.75;12.00;9.75
72854;PMS7003;60991;51.278;22.550;2023-05-16T05:19:58;12.75;10.75;8.25
72854;PMS7003;60991;51.278;22.550;2023-05-16T05:21:28;14.50;11.75;7.50
72854;PMS7003;60991;51.278;22.550;2023-05-16T05:22:58;13.00;11.25;9.25
72854;PMS7003;60991;51.278;22.550;2023-05-16T05:24:28;13.00;13.00;8.25
72854;PMS7003;60991;51.278;22.550;2023-05-16T05:25:59;12.75;9.50;7.75
72854;PMS7003;60991;51.278;22.550;2023-05-16T05:27:29;13.25;12.75;10.00
72854;PMS7003;60991;51.278;22.550;2023-05-16T05:28:59;16.25;13.25;8.00
72854;PMS7003;60991;51.278;22.550;2023-05-16T05:30:29;11.00;10.75;7.25
72854;PMS7003;60991;51.278;22.550;2023-05-16T05:32:00;13.75;12.00;8.00
72854;PMS7003;60991;51.278;22.550;2023-05-16T05:33:30;11.25;11.25;7.50
72854;PMS7003;60991;51.278;22.550;2023-05-16T05:35:00;13.50;13.50;9.75
72854;PMS7003;60991;51.278;22.550;2023-05-16T05:36:30;12.50;11.50;7.75
72854;PMS7003;60991;51.278;22.550;2023-05-16T05:38:00;13.25;11.00;7.00
72854;PMS7003;60991;51.278;22.550;2023-05-16T05:39:31;13.00;12.75;9.50
72854;PMS7003;60991;51.278;22.550;2023-05-16T05:41:01;15.75;14.75;10.75
72854;PMS7003;60991;51.278;22.550;2023-05-16T05:42:31;13.00;11.00;7.75
72854;PMS7003;60991;51.278;22.550;2023-05-16T05:44:01;10.00;10.00;7.00
72854;PMS7003;60991;51.278;22.550;2023-05-16T05:45:31;13.75;12.25;8.00
72854;PMS7003;60991;51.278;22.550;2023-05-16T05:47:02;13.25;11.50;8.75
72854;PMS7003;60991;51.278;22.550;2023-05-16T05:48:33;11.00;11.00;8.00
72854;PMS7003;60991;51.278;22.550;2023-05-16T05:50:04;14.00;13.25;9.00
72854;PMS7003;60991;51.278;22.550;2023-05-16T05:51:35;17.50;13.00;10.50
72854;PMS7003;60991;51.278;22.550;2023-05-16T05:53:05;13.50;10.75;7.75
72854;PMS7003;60991;51.278;22.550;2023-05-16T05:54:35;12.75;12.75;8.50
72854;PMS7003;60991;51.278;22.550;2023-05-16T05:56:05;13.25;12.25;9.25
72854;PMS7003;60991;51.278;22.550;2023-05-16T05:57:36;16.25;14.25;9.50
72854;PMS7003;60991;51.278;22.550;2023-05-16T05:59:06;15.75;14.75;9.00
72854;PMS7003;60991;51.278;22.550;2023-05-16T06:00:36;13.00;12.50;7.00
72854;PMS7003;60991;51.278;22.550;2023-05-16T06:02:06;12.50;11.00;9.00
72854;PMS7003;60991;51.278;22.550;2023-05-16T06:03:37;12.50;11.75;9.00
72854;PMS7003;60991;51.278;22.550;2023-05-16T06:05:07;16.00;13.75;9.00
72854;PMS7003;60991;51.278;22.550;2023-05-16T06:06:38;8.75;8.75;7.75
72854;PMS7003;60991;51.278;22.550;2023-05-16T06:08:08;17.00;15.00;10.00
72854;PMS7003;60991;51.278;22.550;2023-05-16T06:09:38;11.50;9.50;8.00
72854;PMS7003;60991;51.278;22.550;2023-05-16T06:11:08;15.00;11.75;9.00
72854;PMS7003;60991;51.278;22.550;2023-05-16T06:12:38;12.50;12.25;8.50
72854;PMS7003;60991;51.278;22.550;2023-05-16T06:14:09;15.00;12.25;7.75
72854;PMS7003;60991;51.278;22.550;2023-05-16T06:15:39;12.75;10.25;9.00
72854;PMS7003;60991;51.278;22.550;2023-05-16T06:17:09;14.50;11.75;8.50
72854;PMS7003;60991;51.278;22.550;2023-05-16T06:18:39;13.50;12.25;8.25
72854;PMS7003;60991;51.278;22.550;2023-05-16T06:20:10;15.00;13.00;9.00
72854;PMS7003;60991;51.278;22.550;2023-05-16T06:21:41;13.00;13.00;10.00
72854;PMS7003;60991;51.278;22.550;2023-05-16T06:23:11;12.00;12.00;8.50
72854;PMS7003;60991;51.278;22.550;2023-05-16T06:24:41;15.25;12.50;8.75
72854;PMS7003;60991;51.278;22.550;2023-05-16T06:26:12;14.25;10.75;8.75
72854;PMS7003;60991;51.278;22.550;2023-05-16T06:27:42;9.50;9.50;7.25
72854;PMS7003;60991;51.278;22.550;2023-05-16T06:29:12;10.00;9.50;8.25
72854;PMS7003;60991;51.278;22.550;2023-05-16T06:30:42;15.75;12.25;8.25
72854;PMS7003;60991;51.278;22.550;2023-05-16T06:32:13;13.50;12.00;9.75
72854;PMS7003;60991;51.278;22.550;2023-05-16T06:33:43;9.50;9.25;7.00
72854;PMS7003;60991;51.278;22.550;2023-05-16T06:35:13;7.50;7.50;6.50
72854;PMS7003;60991;51.278;22.550;2023-05-16T06:36:43;9.50;8.50;7.50
72854;PMS7003;60991;51.278;22.550;2023-05-16T06:38:14;12.25;10.00;7.50
72854;PMS7003;60991;51.278;22.550;2023-05-16T06:39:44;13.50;10.00;7.50
72854;PMS7003;60991;51.278;22.550;2023-05-16T06:41:15;10.00;10.00;8.00
72854;PMS7003;60991;51.278;22.550;2023-05-16T06:42:45;9.25;9.25;7.25
72854;PMS7003;60991;51.278;22.550;2023-05-16T06:44:15;12.00;11.00;9.75
72854;PMS7003;60991;51.278;22.550;2023-05-16T06:45:45;10.25;10.00;9.00
72854;PMS7003;60991;51.278;22.550;2023-05-16T06:47:16;10.75;9.75;7.50
72854;PMS7003;60991;51.278;22.550;2023-05-16T06:48:46;10.50;9.00;7.75
72854;PMS7003;60991;51.278;22.550;2023-05-16T06:50:16;13.25;11.25;8.00
72854;PMS7003;60991;51.278;22.550;2023-05-16T06:51:46;12.00;9.75;7.75
72854;PMS7003;60991;51.278;22.550;2023-05-16T06:53:17;11.00;10.00;8.00
72854;PMS7003;60991;51.278;22.550;2023-05-16T06:54:47;11.00;10.00;8.00
72854;PMS7003;60991;51.278;22.550;2023-05-16T06:56:17;10.50;10.50;8.50
72854;PMS7003;60991;51.278;22.550;2023-05-16T06:57:47;11.25;10.00;7.25
72854;PMS7003;60991;51.278;22.550;2023-05-16T06:59:18;14.50;12.00;8.00
72854;PMS7003;60991;51.278;22.550;2023-05-16T07:00:48;11.00;11.00;8.50
72854;PMS7003;60991;51.278;22.550;2023-05-16T07:02:18;9.25;9.00;7.00
72854;PMS7003;60991;51.278;22.550;2023-05-16T07:03:49;10.00;9.75;8.25
72854;PMS7003;60991;51.278;22.550;2023-05-16T07:05:19;9.50;9.50;7.75
72854;PMS7003;60991;51.278;22.550;2023-05-16T07:06:49;8.75;8.75;7.00
72854;PMS7003;60991;51.278;22.550;2023-05-16T07:08:19;8.75;8.75;7.75
72854;PMS7003;60991;51.278;22.550;2023-05-16T07:09:49;11.50;10.75;9.00
72854;PMS7003;60991;51.278;22.550;2023-05-16T07:11:20;11.25;10.25;8.50
72854;PMS7003;60991;51.278;22.550;2023-05-16T07:12:50;11.00;9.75;7.75
72854;PMS7003;60991;51.278;22.550;2023-05-16T07:14:20;9.75;9.75;7.50
72854;PMS7003;60991;51.278;22.550;2023-05-16T07:15:50;9.25;8.75;7.00
72854;PMS7003;60991;51.278;22.550;2023-05-16T07:17:20;10.00;10.00;8.75
72854;PMS7003;60991;51.278;22.550;2023-05-16T07:18:51;9.75;9.75;7.25
72854;PMS7003;60991;51.278;22.550;2023-05-16T07:20:21;9.25;9.25;7.00
72854;PMS7003;60991;51.278;22.550;2023-05-16T07:21:52;10.50;10.00;7.00
72854;PMS7003;60991;51.278;22.550;2023-05-16T07:23:22;9.25;9.25;8.00
72854;PMS7003;60991;51.278;22.550;2023-05-16T07:24:52;10.00;8.50;7.00
72854;PMS7003;60991;51.278;22.550;2023-05-16T07:26:22;9.50;9.50;7.50
72854;PMS7003;60991;51.278;22.550;2023-05-16T07:27:52;9.25;8.00;7.00
72854;PMS7003;60991;51.278;22.550;2023-05-16T07:29:23;9.50;9.50;7.25
72854;PMS7003;60991;51.278;22.550;2023-05-16T07:30:53;9.00;9.00;8.25
72854;PMS7003;60991;51.278;22.550;2023-05-16T07:32:24;8.25;8.25;7.25
72854;PMS7003;60991;51.278;22.550;2023-05-16T07:33:54;8.25;8.00;6.75
72854;PMS7003;60991;51.278;22.550;2023-05-16T07:35:24;9.00;9.00;8.00
72854;PMS7003;60991;51.278;22.550;2023-05-16T07:36:54;10.00;9.75;7.50
72854;PMS7003;60991;51.278;22.550;2023-05-16T07:38:25;10.50;9.75;7.00
72854;PMS7003;60991;51.278;22.550;2023-05-16T07:39:55;10.00;9.00;8.00
72854;PMS7003;60991;51.278;22.550;2023-05-16T07:41:25;11.00;10.25;7.25
72854;PMS7003;60991;51.278;22.550;2023-05-16T07:42:55;11.75;10.25;8.00
72854;PMS7003;60991;51.278;22.550;2023-05-16T07:44:26;9.25;9.25;7.00
72854;PMS7003;60991;51.278;22.550;2023-05-16T07:45:56;10.00;9.25;7.00
72854;PMS7003;60991;51.278;22.550;2023-05-16T07:47:26;8.25;8.25;6.50
72854;PMS7003;60991;51.278;22.550;2023-05-16T07:48:57;10.75;10.75;8.25
72854;PMS7003;60991;51.278;22.550;2023-05-16T07:50:27;13.50;13.25;10.00
72854;PMS7003;60991;51.278;22.550;2023-05-16T07:51:57;9.00;9.00;7.00
72854;PMS7003;60991;51.278;22.550;2023-05-16T07:53:27;8.50;8.50;7.75
72854;PMS7003;60991;51.278;22.550;2023-05-16T07:54:57;8.75;8.75;7.25
72854;PMS7003;60991;51.278;22.550;2023-05-16T07:56:28;10.75;9.50;8.00
72854;PMS7003;60991;51.278;22.550;2023-05-16T07:57:58;13.00;11.25;8.25
72854;PMS7003;60991;51.278;22.550;2023-05-16T07:59:28;10.50;9.75;7.75
72854;PMS7003;60991;51.278;22.550;2023-05-16T08:00:58;11.75;10.50;8.75
72854;PMS7003;60991;51.278;22.550;2023-05-16T08:02:29;12.75;12.00;9.50
72854;PMS7003;60991;51.278;22.550;2023-05-16T08:03:59;11.50;10.75;7.50
72854;PMS7003;60991;51.278;22.550;2023-05-16T08:05:29;10.75;10.50;8.00
72854;PMS7003;60991;51.278;22.550;2023-05-16T08:06:59;10.25;9.00;7.00
72854;PMS7003;60991;51.278;22.550;2023-05-16T08:08:30;11.75;10.00;8.50
72854;PMS7003;60991;51.278;22.550;2023-05-16T08:10:00;8.00;8.00;7.50
72854;PMS7003;60991;51.278;22.550;2023-05-16T08:11:30;9.50;9.00;8.00
72854;PMS7003;60991;51.278;22.550;2023-05-16T08:13:00;8.25;8.25;7.25
72854;PMS7003;60991;51.278;22.550;2023-05-16T08:14:31;9.50;8.75;8.25
72854;PMS7003;60991;51.278;22.550;2023-05-16T08:16:01;9.25;9.25;7.75
72854;PMS7003;60991;51.278;22.550;2023-05-16T08:17:31;11.50;11.00;8.25
72854;PMS7003;60991;51.278;22.550;2023-05-16T08:19:01;10.50;9.50;7.50
72854;PMS7003;60991;51.278;22.550;2023-05-16T08:20:31;10.50;10.00;8.50
72854;PMS7003;60991;51.278;22.550;2023-05-16T08:22:02;9.75;9.50;6.25
72854;PMS7003;60991;51.278;22.550;2023-05-16T08:23:35;8.50;8.50;7.25
72854;PMS7003;60991;51.278;22.550;2023-05-16T08:25:05;10.50;9.25;7.50
72854;PMS7003;60991;51.278;22.550;2023-05-16T08:26:36;10.50;10.50;7.50
72854;PMS7003;60991;51.278;22.550;2023-05-16T08:28:06;12.25;12.25;10.00
72854;PMS7003;60991;51.278;22.550;2023-05-16T08:29:36;11.00;7.50;6.50
72854;PMS7003;60991;51.278;22.550;2023-05-16T08:31:06;9.50;8.25;6.00
72854;PMS7003;60991;51.278;22.550;2023-05-16T08:32:37;12.75;11.25;8.25
72854;PMS7003;60991;51.278;22.550;2023-05-16T08:34:07;8.00;8.00;7.00
72854;PMS7003;60991;51.278;22.550;2023-05-16T08:35:41;11.25;10.25;8.75
72854;PMS7003;60991;51.278;22.550;2023-05-16T08:37:11;9.25;9.25;7.25
72854;PMS7003;60991;51.278;22.550;2023-05-16T08:38:42;11.00;10.00;6.75
72854;PMS7003;60991;51.278;22.550;2023-05-16T08:40:12;9.25;8.50;7.25